Key Field
KMEI : rendu visible

Aérodrome :











RETROUVEZ-NOUS SUR...

 
LOGIN :

S'inscrire | Disclaimer

   EN    FR    IT 

 









Légende :    VFR   VFR Marginal   IFR   IFR Intensif   IFR Très Intensif
Visi : 
Plafond : 
>= 8 km
>= 3000ft
5 à 8 km
1000 à 3000 ft
1500m à 5 km
500 à 1000 ft
800 à 1500m
200 à 500 ft
< 800m
< 200 ft
Symboles :   Orages  Brouillard  Fortes neiges  Fortes précipitations  Vent > 20 kt






- Altitude de l'aérodrome : 297 ft
- Code IATA : MEI


KMEI - Key Field

DERNIER METAR :
  • 162258Z 33005KT 10SM CLR 11/02 A3009 RMK AO2 SLP187 T01110022

METARs EXPIRÉS :
  • 162158Z 34007KT 10SM CLR 17/00 A3008 RMK AO2 SLP186 T01670000
  • 162058Z 34008KT 10SM CLR 18/00 A3008 RMK AO2 SLP186 T01780000 56018

TAF KMEI
Valide du 16 à 18h jusqu'au 17 à 18h UTC


161724Z 1618/1718 01005KT P6SM SKC



MET'MAP, la Météo Aéronautique d'un coup d'oeil ! - Copyright ORBIFLY Décembre 2007 - Disclaimer

ORBIFLY MET'MAP TEAM :

Programmation & Développement : Alexandra Zaïnal
Conception & Développement : Baudouin d'Aumeries
Co-Programmation & Développement : Marc-Olivier Méhu
Soutien technique & logistique : Manuel Goepfert

Contact : metmap@orbifly.com




SOURCES & CREDITS :

   NOAA       Earth
Advisory